createdAt,value
2022-09-10T00:01:04.883Z,14.14
2022-09-10T00:06:09.601Z,14.14
2022-09-10T00:11:12.425Z,14.08
2022-09-10T00:16:19.195Z,14.01
2022-09-10T00:21:22.554Z,14.02
2022-09-10T00:26:27.623Z,13.95
2022-09-10T00:31:33.472Z,13.94
2022-09-10T00:36:39.663Z,13.91
2022-09-10T00:41:44.547Z,13.82
2022-09-10T00:46:52.574Z,13.75
2022-09-10T00:51:55.532Z,13.66
2022-09-10T00:57:03.767Z,13.68
2022-09-10T01:02:08.735Z,13.69
2022-09-10T01:07:13.619Z,13.69
2022-09-10T01:12:34.376Z,13.74
2022-09-10T01:17:56.069Z,13.75
2022-09-10T01:23:17.767Z,13.72
2022-09-10T01:28:31.568Z,13.70
2022-09-10T01:33:41.730Z,13.70
2022-09-10T01:38:45.277Z,13.69
2022-09-10T01:43:49.990Z,13.69
2022-09-10T01:49:23.316Z,13.72
2022-09-10T01:54:46.518Z,13.73
2022-09-10T01:59:59.925Z,13.73
2022-09-10T02:05:04.321Z,13.77
2022-09-10T02:10:10.118Z,13.81
2022-09-10T02:15:22.342Z,13.77
2022-09-10T02:20:42.906Z,13.83
2022-09-10T02:25:47.096Z,13.86
2022-09-10T02:30:51.256Z,13.90
2022-09-10T02:35:54.511Z,13.97
2022-09-10T02:40:59.387Z,14.01
2022-09-10T02:46:03.699Z,14.05
2022-09-10T02:51:06.676Z,14.08
2022-09-10T02:56:09.471Z,14.09
2022-09-10T03:01:17.574Z,14.10
2022-09-10T03:06:25.801Z,14.09
2022-09-10T03:11:29.263Z,14.10
2022-09-10T03:16:35.577Z,14.12
2022-09-10T03:21:41.746Z,14.11
2022-09-10T03:26:47.248Z,14.11
2022-09-10T03:31:53.296Z,14.12
2022-09-10T03:36:57.300Z,14.12
2022-09-10T03:42:00.148Z,14.14
2022-09-10T03:47:06.182Z,14.18
2022-09-10T03:52:12.524Z,14.18
2022-09-10T03:57:17.183Z,14.16
2022-09-10T04:02:21.648Z,14.18
2022-09-10T04:07:24.483Z,14.16
2022-09-10T04:12:27.579Z,14.15
2022-09-10T04:17:31.979Z,14.16
2022-09-10T04:22:35.490Z,14.22
2022-09-10T04:27:38.345Z,14.20
2022-09-10T04:32:44.344Z,14.25
2022-09-10T04:37:47.145Z,14.27
2022-09-10T04:42:50.405Z,14.29
2022-09-10T04:47:55.982Z,14.30
2022-09-10T04:52:58.999Z,14.35
2022-09-10T04:58:02.349Z,14.33
2022-09-10T05:03:07.075Z,14.30
2022-09-10T05:08:10.269Z,14.32
2022-09-10T05:13:14.427Z,14.33
2022-09-10T05:18:18.491Z,14.36
2022-09-10T05:23:21.319Z,14.37
2022-09-10T05:28:24.849Z,14.40
2022-09-10T05:33:29.600Z,14.44
2022-09-10T05:38:32.587Z,14.50
2022-09-10T05:43:36.362Z,14.50
2022-09-10T05:48:41.819Z,14.51
2022-09-10T05:53:46.435Z,14.47
2022-09-10T05:58:49.614Z,14.53
2022-09-10T06:03:55.119Z,14.60
2022-09-10T06:08:58.607Z,14.64
2022-09-10T06:14:14.822Z,14.78
2022-09-10T06:19:19.812Z,14.78
2022-09-10T06:24:23.553Z,14.96
2022-09-10T06:29:30.405Z,15.10
2022-09-10T06:34:35.759Z,15.06
2022-09-10T06:39:40.058Z,15.18
2022-09-10T06:44:44.189Z,15.32
2022-09-10T06:50:01.487Z,15.51
2022-09-10T06:55:07.682Z,15.76
2022-09-10T07:00:20.234Z,15.69
2022-09-10T07:05:29.374Z,15.60
2022-09-10T07:10:33.726Z,15.50
2022-09-10T07:15:37.940Z,15.34
2022-09-10T07:20:43.729Z,15.32
2022-09-10T07:25:47.399Z,15.42
2022-09-10T07:31:16.557Z,15.37
2022-09-10T07:36:22.679Z,15.35
2022-09-10T07:41:29.620Z,15.34
2022-09-10T07:46:35.027Z,15.54
2022-09-10T07:51:40.673Z,15.77
2022-09-10T07:56:44.113Z,15.81
2022-09-10T08:01:50.887Z,15.79
2022-09-10T08:06:58.163Z,15.67
2022-09-10T08:12:03.067Z,15.66
2022-09-10T08:17:06.046Z,15.75
2022-09-10T08:22:15.312Z,15.66
2022-09-10T08:27:25.163Z,15.82
2022-09-10T08:32:29.018Z,15.78
2022-09-10T08:37:34.652Z,15.77
2022-09-10T08:42:42.910Z,15.89
2022-09-10T08:47:55.383Z,15.77
2022-09-10T08:53:10.784Z,15.69
2022-09-10T08:58:19.474Z,15.72
2022-09-10T09:03:28.805Z,15.69
2022-09-10T09:08:36.542Z,15.75
2022-09-10T09:13:59.825Z,16.14
2022-09-10T09:19:14.194Z,16.40
2022-09-10T09:24:23.999Z,16.45
2022-09-10T09:29:35.524Z,16.67
2022-09-10T09:34:42.587Z,17.34
2022-09-10T09:40:04.663Z,17.96
2022-09-10T09:45:20.979Z,18.18
2022-09-10T09:50:24.409Z,18.31
2022-09-10T09:55:33.651Z,18.30
2022-09-10T10:00:38.006Z,18.10
2022-09-10T10:05:40.851Z,18.56
2022-09-10T10:10:44.937Z,18.42
2022-09-10T10:15:48.863Z,19.34
2022-09-10T10:21:13.437Z,19.59
2022-09-10T10:26:38.489Z,19.68
2022-09-10T10:31:43.531Z,19.53
2022-09-10T10:36:56.282Z,20.02
2022-09-10T10:42:05.739Z,21.08
2022-09-10T10:47:32.839Z,20.81
2022-09-10T10:52:47.155Z,21.26
2022-09-10T10:58:13.005Z,20.39
2022-09-10T11:03:21.222Z,20.03
2022-09-10T11:08:33.639Z,19.22
2022-09-10T11:13:43.455Z,18.75
2022-09-10T11:18:53.971Z,18.27
2022-09-10T11:24:02.537Z,18.21
2022-09-10T11:29:23.048Z,18.86
2022-09-10T11:34:34.493Z,18.89
2022-09-10T11:39:43.342Z,19.16
2022-09-10T11:44:58.150Z,19.33
2022-09-10T11:50:06.979Z,19.38
2022-09-10T11:55:16.068Z,19.79
2022-09-10T12:00:22.307Z,19.66
2022-09-10T12:05:31.319Z,19.19
2022-09-10T12:10:40.673Z,18.76
2022-09-10T12:15:52.584Z,18.01
2022-09-10T12:20:59.317Z,17.69
2022-09-10T12:26:09.419Z,17.16
2022-09-10T12:31:15.168Z,16.98
2022-09-10T12:36:58.144Z,17.15
2022-09-10T12:42:02.554Z,17.19
2022-09-10T12:47:34.615Z,17.68
2022-09-10T12:52:50.874Z,17.63
2022-09-10T12:58:03.491Z,17.56
2022-09-10T13:03:17.731Z,18.24
2022-09-10T13:08:25.267Z,18.39
2022-09-10T13:13:37.556Z,18.58
2022-09-10T13:18:43.214Z,18.76
2022-09-10T13:23:48.594Z,18.59
2022-09-10T13:29:05.661Z,17.96
2022-09-10T13:34:23.685Z,17.47
2022-09-10T13:39:53.827Z,16.73
2022-09-10T13:45:18.011Z,16.46
2022-09-10T13:50:25.586Z,16.29
2022-09-10T13:55:30.525Z,16.42
2022-09-10T14:00:41.676Z,16.25
2022-09-10T14:05:50.030Z,16.36
2022-09-10T14:10:58.324Z,16.44
2022-09-10T14:16:04.882Z,16.47
2022-09-10T14:21:09.141Z,16.28
2022-09-10T14:26:23.143Z,16.29
2022-09-10T14:31:33.421Z,16.38
2022-09-10T14:36:37.491Z,16.30
2022-09-10T14:41:40.599Z,16.39
2022-09-10T14:46:52.575Z,16.32
2022-09-10T14:51:58.494Z,16.31
2022-09-10T14:57:03.794Z,16.22
2022-09-10T15:02:15.701Z,16.17
2022-09-10T15:07:19.970Z,16.03
2022-09-10T15:12:25.711Z,15.94
2022-09-10T15:17:28.576Z,15.82
2022-09-10T15:22:32.625Z,15.77
2022-09-10T15:27:35.400Z,15.68
2022-09-10T15:32:38.099Z,15.91
2022-09-10T15:37:42.199Z,16.24
2022-09-10T15:42:44.868Z,16.20
2022-09-10T15:47:47.939Z,16.00
2022-09-10T15:52:52.523Z,16.11
2022-09-10T15:57:55.348Z,16.10
2022-09-10T16:02:58.455Z,16.16
2022-09-10T16:08:04.169Z,16.45
2022-09-10T16:13:07.225Z,16.61
2022-09-10T16:18:12.964Z,16.76
2022-09-10T16:23:23.563Z,17.07
2022-09-10T16:28:26.866Z,17.11
2022-09-10T16:33:33.161Z,17.00
2022-09-10T16:38:37.925Z,16.94
2022-09-10T16:43:42.046Z,17.04
2022-09-10T16:48:45.729Z,16.99
2022-09-10T16:53:57.452Z,16.93
2022-09-10T16:59:00.480Z,16.85
2022-09-10T17:04:04.870Z,16.86
2022-09-10T17:09:08.935Z,16.74
2022-09-10T17:14:12.381Z,16.62
2022-09-10T17:19:17.503Z,16.46
2022-09-10T17:24:24.238Z,16.38
2022-09-10T17:29:27.432Z,16.30
2022-09-10T17:34:30.159Z,16.23
2022-09-10T17:39:34.221Z,16.12
2022-09-10T17:44:37.015Z,16.11
2022-09-10T17:49:40.420Z,16.00
2022-09-10T17:54:45.866Z,15.94
2022-09-10T17:59:48.704Z,15.91
2022-09-10T18:04:51.455Z,15.86
2022-09-10T18:09:55.608Z,15.85
2022-09-10T18:14:58.475Z,15.82
2022-09-10T18:20:01.281Z,15.83
2022-09-10T18:25:06.663Z,15.80
2022-09-10T18:30:10.392Z,15.76
2022-09-10T18:35:13.154Z,15.72
2022-09-10T18:40:17.642Z,15.65
2022-09-10T18:45:20.534Z,15.63
2022-09-10T18:50:26.467Z,15.52
2022-09-10T18:55:30.765Z,15.34
2022-09-10T19:00:35.127Z,15.13
2022-09-10T19:05:38.254Z,14.98
2022-09-10T19:10:42.418Z,14.81
2022-09-10T19:15:54.424Z,14.73
2022-09-10T19:20:57.721Z,14.63
2022-09-10T19:26:02.899Z,14.60
2022-09-10T19:31:06.195Z,14.53
2022-09-10T19:36:10.843Z,14.51
2022-09-10T19:41:18.694Z,14.44
2022-09-10T19:46:25.869Z,14.41
2022-09-10T19:51:31.751Z,14.43
2022-09-10T19:56:38.501Z,14.41
2022-09-10T20:01:43.719Z,14.42
2022-09-10T20:06:47.662Z,14.37
2022-09-10T20:11:51.823Z,14.40
2022-09-10T20:16:54.641Z,14.43
2022-09-10T20:21:57.414Z,14.44
2022-09-10T20:27:01.559Z,14.49
2022-09-10T20:32:04.396Z,14.52
2022-09-10T20:37:07.133Z,14.57
2022-09-10T20:42:11.939Z,14.61
2022-09-10T20:47:14.752Z,14.65
2022-09-10T20:52:17.430Z,14.68
2022-09-10T20:57:22.730Z,14.70
2022-09-10T21:02:26.286Z,14.71
2022-09-10T21:07:30.145Z,14.76
2022-09-10T21:12:34.977Z,14.77
2022-09-10T21:17:38.055Z,14.78
2022-09-10T21:22:41.704Z,14.80
2022-09-10T21:27:47.159Z,14.80
2022-09-10T21:32:50.088Z,14.79
2022-09-10T21:37:52.750Z,14.76
2022-09-10T21:42:56.930Z,14.77
2022-09-10T21:47:59.702Z,14.73
2022-09-10T21:53:02.901Z,14.72
2022-09-10T21:58:06.988Z,14.73
2022-09-10T22:03:10.578Z,14.72
2022-09-10T22:08:14.165Z,14.76
2022-09-10T22:13:18.805Z,14.75
2022-09-10T22:18:22.467Z,14.73
2022-09-10T22:23:26.207Z,14.78
2022-09-10T22:28:34.287Z,14.79
2022-09-10T22:33:39.033Z,14.82
2022-09-10T22:38:42.556Z,14.85
2022-09-10T22:43:47.078Z,14.83
2022-09-10T22:48:49.759Z,14.80
2022-09-10T22:53:53.725Z,14.81
2022-09-10T22:58:59.604Z,14.86
2022-09-10T23:04:03.735Z,14.88
2022-09-10T23:09:08.225Z,14.92
2022-09-10T23:14:15.466Z,14.93
2022-09-10T23:19:19.889Z,14.97
2022-09-10T23:24:24.572Z,14.98
2022-09-10T23:29:28.807Z,14.99
2022-09-10T23:34:31.476Z,14.98
2022-09-10T23:39:34.232Z,15.00
2022-09-10T23:44:38.460Z,15.00
2022-09-10T23:49:41.237Z,15.01
2022-09-10T23:54:43.940Z,15.03
2022-09-10T23:59:47.970Z,15.01
